createdAt,value
2023-04-27T00:02:19.624Z,98848.41
2023-04-27T00:04:47.262Z,98845.09
2023-04-27T00:07:16.950Z,98848.88
2023-04-27T00:09:43.854Z,98846.72
2023-04-27T00:12:10.791Z,98839.72
2023-04-27T00:14:37.668Z,98832.66
2023-04-27T00:17:04.488Z,98841.31
2023-04-27T00:19:31.366Z,98840.00
2023-04-27T00:22:02.469Z,98836.78
2023-04-27T00:24:29.276Z,98836.03
2023-04-27T00:26:56.140Z,98823.56
2023-04-27T00:29:22.955Z,98824.88
2023-04-27T00:31:49.987Z,98824.88
2023-04-27T00:34:16.827Z,98815.44
2023-04-27T00:36:43.817Z,98822.50
2023-04-27T00:39:10.665Z,98811.72
2023-04-27T00:41:41.779Z,98813.94
2023-04-27T00:44:08.748Z,98813.41
2023-04-27T00:46:36.159Z,98811.44
2023-04-27T00:49:03.787Z,98813.06
2023-04-27T00:51:31.273Z,98816.09
2023-04-27T00:54:00.020Z,98811.31
2023-04-27T00:56:26.881Z,98811.31
2023-04-27T00:58:53.906Z,98817.56
2023-04-27T01:01:21.043Z,98820.28
2023-04-27T01:03:48.682Z,98821.91
2023-04-27T01:06:16.140Z,98829.25
2023-04-27T01:08:43.026Z,98834.41
2023-04-27T01:11:09.836Z,98834.94
2023-04-27T01:13:36.640Z,98831.97
2023-04-27T01:16:03.624Z,98830.84
2023-04-27T01:18:30.479Z,98820.25
2023-04-27T01:20:57.541Z,98826.78
2023-04-27T01:23:24.368Z,98825.47
2023-04-27T01:25:53.717Z,98825.47
2023-04-27T01:28:20.823Z,98827.41
2023-04-27T01:30:47.700Z,98833.13
2023-04-27T01:33:14.754Z,98830.19
2023-04-27T01:35:41.655Z,98833.44
2023-04-27T01:38:08.675Z,98828.34
2023-04-27T01:40:35.684Z,98828.63
2023-04-27T01:43:03.417Z,98828.28
2023-04-27T01:45:30.467Z,98827.53
2023-04-27T01:47:57.349Z,98824.25
2023-04-27T01:50:24.208Z,98824.34
2023-04-27T01:52:51.301Z,98830.31
2023-04-27T01:55:18.277Z,98828.72
2023-04-27T01:57:45.642Z,98833.31
2023-04-27T02:00:13.383Z,98834.69
2023-04-27T02:02:40.261Z,98834.91
2023-04-27T02:05:07.740Z,98838.72
2023-04-27T02:07:34.899Z,98838.19
2023-04-27T02:10:02.188Z,98834.91
2023-04-27T02:12:28.936Z,98834.66
2023-04-27T02:14:55.846Z,98843.81
2023-04-27T02:17:23.212Z,98842.72
2023-04-27T02:19:49.960Z,98839.28
2023-04-27T02:22:17.411Z,98846.63
2023-04-27T02:24:44.232Z,98842.81
2023-04-27T02:27:11.156Z,98840.88
2023-04-27T02:29:39.346Z,98838.19
2023-04-27T02:32:06.899Z,98844.44
2023-04-27T02:34:33.660Z,98837.16
2023-04-27T02:37:01.336Z,98847.88
2023-04-27T02:39:28.185Z,98844.38
2023-04-27T02:41:55.064Z,98848.44
2023-04-27T02:44:21.920Z,98850.91
2023-04-27T02:46:50.119Z,98847.94
2023-04-27T02:49:17.214Z,98843.59
2023-04-27T02:51:44.040Z,98844.69
2023-04-27T02:54:11.492Z,98854.97
2023-04-27T02:56:38.355Z,98848.75
2023-04-27T02:59:07.088Z,98847.13
2023-04-27T03:01:33.890Z,98848.97
2023-04-27T03:04:00.880Z,98844.38
2023-04-27T03:06:27.758Z,98841.66
2023-04-27T03:08:54.524Z,98849.50
2023-04-27T03:11:21.347Z,98843.53
2023-04-27T03:13:48.242Z,98850.28
2023-04-27T03:16:15.132Z,98850.78
2023-04-27T03:18:41.983Z,98844.56
2023-04-27T03:21:12.787Z,98845.97
2023-04-27T03:23:40.283Z,98847.28
2023-04-27T03:26:12.498Z,98849.75
2023-04-27T03:28:40.368Z,98842.47
2023-04-27T03:31:13.615Z,98849.50
2023-04-27T03:33:42.366Z,98850.06
2023-04-27T03:36:11.238Z,98851.13
2023-04-27T03:38:38.580Z,98858.41
2023-04-27T03:41:06.764Z,98852.72
2023-04-27T03:43:33.751Z,98848.75
2023-04-27T03:46:00.666Z,98854.41
2023-04-27T03:48:27.460Z,98851.41
2023-04-27T03:50:54.290Z,98858.44
2023-04-27T03:53:21.176Z,98854.94
2023-04-27T03:55:47.966Z,98845.22
2023-04-27T03:58:14.709Z,98849.25
2023-04-27T04:00:41.684Z,98840.38
2023-04-27T04:03:08.901Z,98850.09
2023-04-27T04:05:36.163Z,98851.66
2023-04-27T04:08:03.894Z,98855.22
2023-04-27T04:10:30.794Z,98856.56
2023-04-27T04:12:57.589Z,98860.34
2023-04-27T04:15:24.407Z,98862.78
2023-04-27T04:17:51.437Z,98862.78
2023-04-27T04:20:18.426Z,98860.31
2023-04-27T04:22:45.294Z,98868.41
2023-04-27T04:25:13.986Z,98865.47
2023-04-27T04:27:41.328Z,98858.19
2023-04-27T04:30:08.843Z,98863.56
2023-04-27T04:32:38.093Z,98864.13
2023-04-27T04:35:06.231Z,98864.69
2023-04-27T04:37:35.440Z,98860.91
2023-04-27T04:40:09.105Z,98863.34
2023-04-27T04:42:37.787Z,98864.09
2023-04-27T04:45:05.688Z,98864.38
2023-04-27T04:47:34.078Z,98862.78
2023-04-27T04:50:01.514Z,98865.19
2023-04-27T04:52:28.553Z,98859.03
2023-04-27T04:54:55.409Z,98863.34
2023-04-27T04:57:22.353Z,98869.25
2023-04-27T04:59:49.520Z,98861.16
2023-04-27T05:02:16.386Z,98861.38
2023-04-27T05:04:43.298Z,98861.94
2023-04-27T05:07:14.540Z,98861.41
2023-04-27T05:09:41.699Z,98860.03
2023-04-27T05:12:08.573Z,98869.16
2023-04-27T05:14:35.810Z,98869.97
2023-04-27T05:17:02.741Z,98871.53
2023-04-27T05:19:31.260Z,98871.81
2023-04-27T05:22:01.237Z,98873.16
2023-04-27T05:24:28.015Z,98879.66
2023-04-27T05:26:55.066Z,98880.19
2023-04-27T05:29:22.616Z,98879.94
2023-04-27T05:31:49.632Z,98883.41
2023-04-27T05:34:17.008Z,98890.38
2023-04-27T05:36:43.833Z,98888.66
2023-04-27T05:39:10.826Z,98884.91
2023-04-27T05:41:37.681Z,98896.25
2023-04-27T05:44:04.786Z,98894.59
2023-04-27T05:46:31.915Z,98899.44
2023-04-27T05:48:59.375Z,98895.38
2023-04-27T05:51:28.739Z,98896.44
2023-04-27T05:53:56.248Z,98907.50
2023-04-27T05:56:23.262Z,98904.03
2023-04-27T05:58:50.657Z,98909.16
2023-04-27T06:01:18.033Z,98905.34
2023-04-27T06:03:45.128Z,98903.72
2023-04-27T06:06:12.657Z,98909.66
2023-04-27T06:08:39.594Z,98914.28
2023-04-27T06:11:06.747Z,98908.34
2023-04-27T06:13:33.953Z,98915.59
2023-04-27T06:16:01.815Z,98919.66
2023-04-27T06:18:28.855Z,98923.66
2023-04-27T06:21:02.445Z,98925.97
2023-04-27T06:23:29.392Z,98924.78
2023-04-27T06:25:56.361Z,98926.81
2023-04-27T06:28:23.261Z,98924.88
2023-04-27T06:30:50.024Z,98932.66
2023-04-27T06:33:16.910Z,98928.84
2023-04-27T06:35:47.444Z,98922.13
2023-04-27T06:38:14.510Z,98925.63
2023-04-27T06:40:41.748Z,98927.53
2023-04-27T06:43:11.393Z,98933.16
2023-04-27T06:45:38.244Z,98931.44
2023-04-27T06:48:08.136Z,98930.78
2023-04-27T06:50:35.027Z,98926.84
2023-04-27T06:53:01.790Z,98926.28
2023-04-27T06:55:28.607Z,98924.81
2023-04-27T06:57:55.466Z,98930.41
2023-04-27T07:00:22.751Z,98925.44
2023-04-27T07:02:49.820Z,98936.16
2023-04-27T07:05:17.099Z,98931.84
2023-04-27T07:07:44.339Z,98937.06
2023-04-27T07:10:12.287Z,98933.44
2023-04-27T07:12:40.737Z,98938.19
2023-04-27T07:15:08.514Z,98938.91
2023-04-27T07:17:35.707Z,98939.25
2023-04-27T07:20:05.104Z,98943.31
2023-04-27T07:22:33.330Z,98932.00
2023-04-27T07:25:00.532Z,98929.63
2023-04-27T07:27:27.577Z,98927.22
2023-04-27T07:29:54.776Z,98927.63
2023-04-27T07:32:22.642Z,98932.38
2023-04-27T07:34:54.130Z,98936.72
2023-04-27T07:37:22.924Z,98928.56
2023-04-27T07:39:51.841Z,98923.22
2023-04-27T07:42:20.189Z,98928.13
2023-04-27T07:44:47.304Z,98928.22
2023-04-27T07:47:14.411Z,98919.75
2023-04-27T07:49:41.256Z,98919.44
2023-04-27T07:52:08.353Z,98911.50
2023-04-27T07:54:35.682Z,98912.47
2023-04-27T07:57:09.788Z,98916.72
2023-04-27T07:59:36.640Z,98921.09
2023-04-27T08:02:18.579Z,98914.63
2023-04-27T08:04:47.331Z,98911.94
2023-04-27T08:07:17.325Z,98914.88
2023-04-27T08:09:51.051Z,98910.19
2023-04-27T08:12:17.930Z,98905.09
2023-04-27T08:14:45.099Z,98913.78
2023-04-27T08:17:14.600Z,98912.19
2023-04-27T08:19:41.848Z,98914.91
2023-04-27T08:22:10.110Z,98909.91
2023-04-27T08:24:37.391Z,98898.19
2023-04-27T08:27:06.225Z,98901.53
2023-04-27T08:29:33.589Z,98904.25
2023-04-27T08:32:03.354Z,98896.38
2023-04-27T08:34:36.987Z,98906.09
2023-04-27T08:37:04.446Z,98904.50
2023-04-27T08:39:31.390Z,98901.16
2023-04-27T08:41:58.690Z,98895.63
2023-04-27T08:44:25.838Z,98896.09
2023-04-27T08:46:53.226Z,98891.41
2023-04-27T08:49:21.057Z,98895.44
2023-04-27T08:51:48.104Z,98896.28
2023-04-27T08:54:15.030Z,98896.22
2023-04-27T08:56:42.717Z,98888.13
2023-04-27T08:59:16.536Z,98894.34
2023-04-27T09:01:49.181Z,98885.66
2023-04-27T09:04:17.902Z,98885.72
2023-04-27T09:06:45.968Z,98887.31
2023-04-27T09:09:23.613Z,98898.91
2023-04-27T09:11:51.313Z,98898.50
2023-04-27T09:14:22.251Z,98897.59
2023-04-27T09:16:58.047Z,98892.66
2023-04-27T09:19:30.362Z,98899.28
2023-04-27T09:22:11.585Z,98897.34
2023-04-27T09:24:38.868Z,98894.69
2023-04-27T09:27:07.386Z,98903.97
2023-04-27T09:29:38.765Z,98896.88
2023-04-27T09:32:20.946Z,98903.03
2023-04-27T09:34:48.189Z,98902.25
2023-04-27T09:37:16.473Z,98899.31
2023-04-27T09:39:44.439Z,98894.66
2023-04-27T09:42:12.854Z,98898.72
2023-04-27T09:44:39.766Z,98895.22
2023-04-27T09:47:07.577Z,98892.75
2023-04-27T09:49:35.985Z,98888.97
2023-04-27T09:52:02.888Z,98884.47
2023-04-27T09:54:36.161Z,98888.19
2023-04-27T09:57:33.435Z,98884.47
2023-04-27T10:00:16.307Z,98883.94
2023-04-27T10:03:08.388Z,98887.41
2023-04-27T10:06:15.754Z,98891.25
2023-04-27T10:08:43.176Z,98893.00
2023-04-27T10:11:19.071Z,98889.09
2023-04-27T10:13:55.090Z,98891.56
2023-04-27T10:16:22.727Z,98892.56
2023-04-27T10:18:56.183Z,98896.88
2023-04-27T10:21:23.752Z,98891.59
2023-04-27T10:23:52.332Z,98889.69
2023-04-27T10:26:27.838Z,98894.91
2023-04-27T10:29:10.376Z,98895.19
2023-04-27T10:31:45.493Z,98884.38
2023-04-27T10:34:20.582Z,98886.19
2023-04-27T10:36:48.192Z,98883.88
2023-04-27T10:39:29.939Z,98878.56
2023-04-27T10:42:00.006Z,98883.47
2023-04-27T10:44:32.595Z,98884.16
2023-04-27T10:47:12.092Z,98891.91
2023-04-27T10:49:39.541Z,98886.97
2023-04-27T10:52:06.993Z,98877.13
2023-04-27T10:54:34.769Z,98879.88
2023-04-27T10:57:10.851Z,98875.47
2023-04-27T10:59:53.474Z,98872.28
2023-04-27T11:02:29.698Z,98875.38
2023-04-27T11:05:00.113Z,98875.63
2023-04-27T11:07:28.945Z,98876.19
2023-04-27T11:09:55.997Z,98865.59
2023-04-27T11:12:23.970Z,98855.44
2023-04-27T11:14:50.906Z,98856.50
2023-04-27T11:17:32.247Z,98862.66
2023-04-27T11:19:59.076Z,98858.66
2023-04-27T11:22:26.374Z,98857.50
2023-04-27T11:24:53.799Z,98864.19
2023-04-27T11:27:22.406Z,98868.06
2023-04-27T11:29:49.720Z,98876.94
2023-04-27T11:32:24.034Z,98867.84
2023-04-27T11:34:53.773Z,98863.88
2023-04-27T11:37:24.297Z,98862.19
2023-04-27T11:39:53.169Z,98862.03
2023-04-27T11:42:28.817Z,98855.34
2023-04-27T11:45:07.797Z,98852.13
2023-04-27T11:47:38.047Z,98844.81
2023-04-27T11:50:08.476Z,98836.75
2023-04-27T11:52:38.855Z,98843.88
2023-04-27T11:55:15.659Z,98836.66
2023-04-27T11:57:43.285Z,98840.53
2023-04-27T12:00:11.327Z,98838.59
2023-04-27T12:02:39.150Z,98839.25
2023-04-27T12:05:07.940Z,98830.44
2023-04-27T12:07:35.094Z,98826.16
2023-04-27T12:10:02.044Z,98825.28
2023-04-27T12:12:28.960Z,98830.69
2023-04-27T12:14:55.940Z,98825.66
2023-04-27T12:17:23.440Z,98833.88
2023-04-27T12:19:50.357Z,98821.88
2023-04-27T12:22:17.213Z,98824.13
2023-04-27T12:24:44.119Z,98822.09
2023-04-27T12:27:12.097Z,98812.50
2023-04-27T12:29:42.097Z,98829.31
2023-04-27T12:32:09.156Z,98824.19
2023-04-27T12:34:36.446Z,98816.53
2023-04-27T12:37:03.580Z,98818.13
2023-04-27T12:39:30.456Z,98810.69
2023-04-27T12:42:00.581Z,98803.31
2023-04-27T12:44:27.615Z,98805.88
2023-04-27T12:46:54.679Z,98806.16
2023-04-27T12:49:21.776Z,98806.81
2023-04-27T12:51:52.158Z,98806.94
2023-04-27T12:54:19.309Z,98808.75
2023-04-27T12:56:47.091Z,98812.88
2023-04-27T12:59:14.258Z,98813.06
2023-04-27T13:01:41.209Z,98809.38
2023-04-27T13:04:09.124Z,98813.66
2023-04-27T13:06:36.322Z,98803.44
2023-04-27T13:09:06.593Z,98805.78
2023-04-27T13:11:33.530Z,98804.91
2023-04-27T13:14:01.945Z,98803.13
2023-04-27T13:16:28.867Z,98797.97
2023-04-27T13:18:55.996Z,98802.13
2023-04-27T13:21:23.248Z,98793.03
2023-04-27T13:23:51.087Z,98788.78
2023-04-27T13:26:18.167Z,98785.75
2023-04-27T13:28:45.004Z,98780.56
2023-04-27T13:31:12.119Z,98789.97
2023-04-27T13:33:42.924Z,98786.50
2023-04-27T13:36:11.666Z,98775.69
2023-04-27T13:38:38.932Z,98770.31
2023-04-27T13:41:06.913Z,98780.94
2023-04-27T13:43:34.167Z,98787.34
2023-04-27T13:46:04.510Z,98775.25
2023-04-27T13:48:32.454Z,98780.03
2023-04-27T13:51:02.749Z,98788.47
2023-04-27T13:53:30.009Z,98780.28
2023-04-27T13:55:58.345Z,98777.47
2023-04-27T13:58:29.346Z,98764.50
2023-04-27T14:00:56.541Z,98775.72
2023-04-27T14:03:25.080Z,98772.78
2023-04-27T14:05:52.096Z,98771.75
2023-04-27T14:08:19.360Z,98775.81
2023-04-27T14:10:46.593Z,98775.13
2023-04-27T14:13:13.596Z,98782.75
2023-04-27T14:15:41.366Z,98778.44
2023-04-27T14:18:08.975Z,98772.63
2023-04-27T14:20:37.496Z,98775.47
2023-04-27T14:23:06.917Z,98775.81
2023-04-27T14:25:34.981Z,98771.97
2023-04-27T14:28:05.688Z,98772.59
2023-04-27T14:30:33.804Z,98772.31
2023-04-27T14:33:01.723Z,98772.34
2023-04-27T14:35:28.740Z,98767.41
2023-04-27T14:38:01.725Z,98767.34
2023-04-27T14:40:30.881Z,98768.28
2023-04-27T14:43:01.118Z,98772.00
2023-04-27T14:45:39.825Z,98767.31
2023-04-27T14:48:14.872Z,98768.06
2023-04-27T14:50:41.965Z,98767.53
2023-04-27T14:53:10.088Z,98770.56
2023-04-27T14:55:36.905Z,98769.41
2023-04-27T14:58:03.948Z,98773.31
2023-04-27T15:00:31.629Z,98773.31
2023-04-27T15:02:58.611Z,98774.03
2023-04-27T15:05:25.581Z,98771.66
2023-04-27T15:07:52.558Z,98768.72
2023-04-27T15:10:19.337Z,98769.38
2023-04-27T15:12:46.545Z,98770.44
2023-04-27T15:15:13.866Z,98770.78
2023-04-27T15:17:41.691Z,98773.09
2023-04-27T15:20:08.970Z,98771.81
2023-04-27T15:22:35.745Z,98765.16
2023-04-27T15:25:02.647Z,98767.88
2023-04-27T15:27:29.562Z,98764.25
2023-04-27T15:29:59.593Z,98756.19
2023-04-27T15:32:30.725Z,98752.06
2023-04-27T15:34:59.427Z,98749.38
2023-04-27T15:37:28.341Z,98754.59
2023-04-27T15:39:59.328Z,98753.56
2023-04-27T15:42:26.334Z,98747.56
2023-04-27T15:44:54.339Z,98748.72
2023-04-27T15:47:21.614Z,98743.81
2023-04-27T15:49:56.922Z,98741.50
2023-04-27T15:52:26.835Z,98735.44
2023-04-27T15:54:53.715Z,98727.78
2023-04-27T15:57:20.598Z,98732.50
2023-04-27T15:59:52.572Z,98733.56
2023-04-27T16:02:19.471Z,98732.41
2023-04-27T16:04:46.593Z,98723.81
2023-04-27T16:07:13.445Z,98714.31
2023-04-27T16:09:40.587Z,98714.16
2023-04-27T16:12:07.475Z,98719.06
2023-04-27T16:14:34.327Z,98715.88
2023-04-27T16:17:03.753Z,98710.16
2023-04-27T16:19:30.776Z,98704.31
2023-04-27T16:21:58.351Z,98698.22
2023-04-27T16:24:25.881Z,98696.41
2023-04-27T16:26:56.842Z,98700.97
2023-04-27T16:29:23.858Z,98705.81
2023-04-27T16:31:56.053Z,98699.78
2023-04-27T16:34:23.001Z,98699.34
2023-04-27T16:36:50.061Z,98700.50
2023-04-27T16:39:19.143Z,98687.75
2023-04-27T16:41:46.075Z,98694.19
2023-04-27T16:44:13.913Z,98689.41
2023-04-27T16:46:41.192Z,98683.13
2023-04-27T16:49:10.972Z,98684.06
2023-04-27T16:51:37.737Z,98691.41
2023-04-27T16:54:04.538Z,98684.91
2023-04-27T16:56:34.997Z,98676.25
2023-04-27T16:59:02.931Z,98678.53
2023-04-27T17:01:30.129Z,98676.50
2023-04-27T17:03:58.928Z,98682.69
2023-04-27T17:06:27.839Z,98686.91
2023-04-27T17:08:56.848Z,98704.88
2023-04-27T17:11:24.744Z,98697.59
2023-04-27T17:13:52.488Z,98690.53
2023-04-27T17:16:20.022Z,98691.22
2023-04-27T17:18:49.453Z,98683.25
2023-04-27T17:21:17.229Z,98687.91
2023-04-27T17:23:46.592Z,98683.13
2023-04-27T17:26:15.819Z,98677.56
2023-04-27T17:28:42.647Z,98675.97
2023-04-27T17:31:09.643Z,98684.44
2023-04-27T17:33:38.001Z,98685.22
2023-04-27T17:36:08.923Z,98687.19
2023-04-27T17:38:36.712Z,98686.72
2023-04-27T17:41:03.481Z,98694.38
2023-04-27T17:43:30.286Z,98696.09
2023-04-27T17:45:57.313Z,98680.34
2023-04-27T17:48:24.370Z,98687.78
2023-04-27T17:50:51.376Z,98692.38
2023-04-27T17:53:18.371Z,98697.03
2023-04-27T17:55:52.592Z,98695.81
2023-04-27T17:58:19.409Z,98703.13
2023-04-27T18:00:46.348Z,98702.91
2023-04-27T18:03:13.458Z,98698.41
2023-04-27T18:05:40.872Z,98699.91
2023-04-27T18:08:11.095Z,98700.47
2023-04-27T18:10:37.980Z,98706.88
2023-04-27T18:13:05.086Z,98701.63
2023-04-27T18:15:32.286Z,98709.84
2023-04-27T18:17:59.141Z,98704.47
2023-04-27T18:20:26.695Z,98698.75
2023-04-27T18:22:54.749Z,98691.22
2023-04-27T18:25:21.903Z,98691.19
2023-04-27T18:27:55.096Z,98689.34
2023-04-27T18:30:23.031Z,98685.59
2023-04-27T18:32:49.907Z,98686.63
2023-04-27T18:35:16.846Z,98690.22
2023-04-27T18:37:48.062Z,98691.91
2023-04-27T18:40:23.262Z,98693.50
2023-04-27T18:42:50.653Z,98689.19
2023-04-27T18:45:20.554Z,98687.53
2023-04-27T18:47:47.535Z,98689.59
2023-04-27T18:50:15.086Z,98699.50
2023-04-27T18:52:41.915Z,98700.28
2023-04-27T18:55:09.598Z,98696.00
2023-04-27T18:57:37.129Z,98700.53
2023-04-27T19:00:05.886Z,98707.00
2023-04-27T19:02:42.629Z,98704.31
2023-04-27T19:05:13.572Z,98710.63
2023-04-27T19:07:40.906Z,98707.41
2023-04-27T19:10:08.741Z,98720.72
2023-04-27T19:12:35.813Z,98708.03
2023-04-27T19:15:03.000Z,98710.44
2023-04-27T19:17:30.476Z,98711.09
2023-04-27T19:19:57.445Z,98718.50
2023-04-27T19:22:24.823Z,98714.47
2023-04-27T19:24:51.654Z,98706.19
2023-04-27T19:27:18.519Z,98702.66
2023-04-27T19:29:54.966Z,98707.66
2023-04-27T19:32:25.206Z,98696.41
2023-04-27T19:34:52.571Z,98685.50
2023-04-27T19:37:19.422Z,98694.03
2023-04-27T19:39:46.846Z,98694.84
2023-04-27T19:42:17.354Z,98694.88
2023-04-27T19:44:44.377Z,98688.78
2023-04-27T19:47:11.395Z,98698.25
2023-04-27T19:49:38.752Z,98699.88
2023-04-27T19:52:08.495Z,98702.41
2023-04-27T19:54:37.948Z,98705.63
2023-04-27T19:57:04.949Z,98694.59
2023-04-27T19:59:31.775Z,98702.91
2023-04-27T20:01:58.673Z,98709.63
2023-04-27T20:04:25.921Z,98704.97
2023-04-27T20:06:52.999Z,98709.13
2023-04-27T20:09:19.862Z,98711.34
2023-04-27T20:11:46.657Z,98704.78
2023-04-27T20:14:13.690Z,98702.84
2023-04-27T20:16:40.868Z,98704.13
2023-04-27T20:19:07.872Z,98702.03
2023-04-27T20:21:34.764Z,98708.59
2023-04-27T20:24:01.566Z,98702.63
2023-04-27T20:26:28.611Z,98695.91
2023-04-27T20:28:55.444Z,98689.97
2023-04-27T20:31:22.348Z,98691.09
2023-04-27T20:33:52.084Z,98694.47
2023-04-27T20:36:23.072Z,98690.31
2023-04-27T20:38:49.939Z,98694.00
2023-04-27T20:41:17.176Z,98680.38
2023-04-27T20:43:45.565Z,98677.47
2023-04-27T20:46:12.661Z,98675.56
2023-04-27T20:48:40.627Z,98670.41
2023-04-27T20:51:07.656Z,98665.47
2023-04-27T20:53:34.753Z,98667.22
2023-04-27T20:56:02.315Z,98665.16
2023-04-27T20:58:29.183Z,98657.00
2023-04-27T21:00:56.267Z,98665.31
2023-04-27T21:03:23.553Z,98662.09
2023-04-27T21:05:53.473Z,98667.72
2023-04-27T21:08:20.505Z,98662.13
2023-04-27T21:10:47.336Z,98662.31
2023-04-27T21:13:14.153Z,98667.13
2023-04-27T21:15:40.941Z,98653.47
2023-04-27T21:18:13.415Z,98655.91
2023-04-27T21:20:43.178Z,98660.19
2023-04-27T21:23:10.042Z,98657.81
2023-04-27T21:25:40.474Z,98650.91
2023-04-27T21:28:07.308Z,98654.91
2023-04-27T21:30:34.208Z,98643.38
2023-04-27T21:33:02.240Z,98645.00
2023-04-27T21:35:32.562Z,98638.91
2023-04-27T21:37:59.921Z,98642.28
2023-04-27T21:40:26.743Z,98633.47
2023-04-27T21:42:54.446Z,98631.66
2023-04-27T21:45:21.991Z,98627.81
2023-04-27T21:47:48.783Z,98621.56
2023-04-27T21:50:16.688Z,98624.56
2023-04-27T21:52:45.402Z,98626.94
2023-04-27T21:55:12.415Z,98620.56
2023-04-27T21:57:39.323Z,98625.06
2023-04-27T22:00:16.039Z,98614.78
2023-04-27T22:02:45.949Z,98619.41
2023-04-27T22:05:12.877Z,98620.97
2023-04-27T22:07:44.169Z,98622.06
2023-04-27T22:10:15.050Z,98612.50
2023-04-27T22:12:41.828Z,98614.06
2023-04-27T22:15:09.361Z,98612.47
2023-04-27T22:17:39.457Z,98615.53
2023-04-27T22:20:14.392Z,98613.34
2023-04-27T22:22:41.586Z,98611.41
2023-04-27T22:25:10.613Z,98607.28
2023-04-27T22:27:45.076Z,98611.94
2023-04-27T22:30:17.015Z,98621.31
2023-04-27T22:32:44.840Z,98623.06
2023-04-27T22:35:24.677Z,98614.75
2023-04-27T22:37:56.705Z,98614.13
2023-04-27T22:40:24.422Z,98612.03
2023-04-27T22:42:51.969Z,98615.63
2023-04-27T22:45:18.819Z,98612.78
2023-04-27T22:47:46.027Z,98609.72
2023-04-27T22:50:14.085Z,98603.63
2023-04-27T22:52:44.414Z,98598.84
2023-04-27T22:55:12.846Z,98588.03
2023-04-27T22:57:41.809Z,98584.38
2023-04-27T23:00:11.151Z,98597.22
2023-04-27T23:02:40.295Z,98596.78
2023-04-27T23:05:08.240Z,98601.78
2023-04-27T23:07:36.023Z,98598.44
2023-04-27T23:10:03.433Z,98593.63
2023-04-27T23:12:39.869Z,98585.03
2023-04-27T23:15:07.420Z,98578.28
2023-04-27T23:17:34.257Z,98572.50
2023-04-27T23:20:04.008Z,98573.97
2023-04-27T23:22:30.887Z,98564.34
2023-04-27T23:24:57.656Z,98561.00
2023-04-27T23:27:25.186Z,98557.16
2023-04-27T23:29:52.536Z,98553.50
2023-04-27T23:32:22.538Z,98558.94
2023-04-27T23:34:53.557Z,98556.22
2023-04-27T23:37:21.328Z,98557.50
2023-04-27T23:39:48.596Z,98552.88
2023-04-27T23:42:15.352Z,98544.88
2023-04-27T23:44:42.598Z,98546.47
2023-04-27T23:47:09.667Z,98545.34
2023-04-27T23:49:36.617Z,98544.38
2023-04-27T23:52:03.560Z,98542.31
2023-04-27T23:54:33.554Z,98538.13
2023-04-27T23:57:00.510Z,98531.88
2023-04-27T23:59:27.293Z,98539.19
